ENRA/MQN METAR and TAF weather

Enter ICAO airport designator
Station Type Date Time Source
ENRA METAR 2020/12/05 23:50 UTC NOAA

ENRA 052350Z 13002KT 9999 BKN022 M00/M01 Q1012


Station Type Date Time Source
ENRA Decoded METAR 2020/12/05 23:50 UTC NOAA

Mo I Rana / Rossvoll, Norway (ENRA) 66-22N 014-18E 70M
Dec 05, 2020 - 06:50 PM EST / 2020.12.05 2350 UTC
Wind: from the SE (130 degrees) at 2 MPH (2 KT):0
Visibility: greater than 7 mile(s):0
Sky conditions: mostly cloudy
Temperature: 32 F (0 C)
Dew Point: 30 F (-1 C)
Relative Humidity: 92%
Pressure (altimeter): 29.88 in. Hg (1012 hPa)
ob: ENRA 052350Z 13002KT 9999 BKN022 M00/M01 Q1012
cycle: 0

Station Type Date Time Source
ENRA TAF UTC NOAA

Error!

Example: see airport list